createdAt,value
2018-06-15T00:00:32.699Z,99.99
2018-06-15T00:01:32.676Z,99.99
2018-06-15T00:02:32.684Z,99.99
2018-06-15T00:03:32.649Z,99.99
2018-06-15T00:04:32.636Z,99.99
2018-06-15T00:05:32.628Z,99.99
2018-06-15T00:06:32.608Z,99.99
2018-06-15T00:07:32.602Z,99.99
2018-06-15T00:08:32.606Z,99.99
2018-06-15T00:09:32.573Z,99.99
2018-06-15T00:10:32.555Z,99.99
2018-06-15T00:11:32.556Z,99.99
2018-06-15T00:12:32.529Z,99.99
2018-06-15T00:13:32.530Z,99.82
2018-06-15T00:14:32.503Z,99.99
2018-06-15T00:15:32.514Z,99.99
2018-06-15T00:16:32.483Z,99.99
2018-06-15T00:17:32.460Z,99.99
2018-06-15T00:18:32.464Z,99.72
2018-06-15T00:19:32.434Z,99.99
2018-06-15T00:20:32.415Z,99.99
2018-06-15T00:21:32.406Z,99.87
2018-06-15T00:22:32.395Z,99.48
2018-06-15T00:23:32.375Z,99.99
2018-06-15T00:24:32.380Z,99.38
2018-06-15T00:25:32.380Z,99.87
2018-06-15T00:26:32.346Z,99.58
2018-06-15T00:27:32.328Z,99.77
2018-06-15T00:28:32.309Z,99.19
2018-06-15T00:29:32.310Z,99.48
2018-06-15T00:30:32.281Z,98.81
2018-06-15T00:31:32.276Z,99.10
2018-06-15T00:32:32.271Z,99.19
2018-06-15T00:33:32.243Z,98.91
2018-06-15T00:34:32.256Z,99.00
2018-06-15T00:35:32.228Z,99.77
2018-06-15T00:36:32.212Z,98.62
2018-06-15T00:37:32.194Z,98.52
2018-06-15T00:38:32.173Z,98.05
2018-06-15T00:39:32.165Z,98.71
2018-06-15T00:40:32.145Z,99.00
2018-06-15T00:41:32.151Z,98.81
2018-06-15T00:42:32.132Z,98.33
2018-06-15T00:43:32.119Z,98.24
2018-06-15T00:44:32.090Z,97.85
2018-06-15T00:45:32.073Z,97.75
2018-06-15T00:46:32.062Z,97.85
2018-06-15T00:47:32.051Z,97.56
2018-06-15T00:48:32.050Z,97.09
2018-06-15T00:49:32.025Z,97.28
2018-06-15T00:50:32.009Z,96.80
2018-06-15T00:51:32.010Z,96.89
2018-06-15T00:52:31.996Z,97.09
2018-06-15T00:53:31.967Z,97.38
2018-06-15T00:54:31.951Z,96.70
2018-06-15T00:55:31.957Z,96.70
2018-06-15T00:56:31.937Z,96.61
2018-06-15T00:57:31.913Z,96.51
2018-06-15T00:58:31.902Z,96.99
2018-06-15T00:59:31.888Z,96.42
2018-06-15T01:00:31.874Z,96.51
2018-06-15T01:01:31.878Z,96.32
2018-06-15T01:02:31.847Z,96.61
2018-06-15T01:03:31.829Z,96.51
2018-06-15T01:04:31.829Z,96.70
2018-06-15T01:05:31.807Z,96.42
2018-06-15T01:06:31.799Z,97.28
2018-06-15T01:07:31.801Z,97.18
2018-06-15T01:08:31.759Z,96.70
2018-06-15T01:09:31.753Z,97.09
2018-06-15T01:10:31.730Z,96.70
2018-06-15T01:11:31.726Z,96.61
2018-06-15T01:12:31.710Z,97.38
2018-06-15T01:13:31.722Z,97.47
2018-06-15T01:14:31.679Z,97.18
2018-06-15T01:15:31.664Z,97.28
2018-06-15T01:16:31.652Z,96.99
2018-06-15T01:17:31.637Z,97.38
2018-06-15T01:18:31.641Z,98.05
2018-06-15T01:19:31.606Z,97.80
2018-06-15T01:20:31.591Z,97.66
2018-06-15T01:21:31.580Z,97.66
2018-06-15T01:22:31.570Z,97.85
2018-06-15T01:23:31.555Z,98.05
2018-06-15T01:24:31.555Z,98.05
2018-06-15T01:25:31.523Z,98.24
2018-06-15T01:26:31.521Z,97.56
2018-06-15T01:27:31.507Z,97.38
2018-06-15T01:28:31.483Z,97.56
2018-06-15T01:29:31.487Z,97.56
2018-06-15T01:30:31.477Z,97.28
2018-06-15T01:31:31.441Z,96.89
2018-06-15T01:32:31.426Z,97.09
2018-06-15T01:33:31.409Z,96.89
2018-06-15T01:34:38.951Z,96.99
2018-06-15T01:35:39.694Z,96.80
2018-06-15T01:36:39.725Z,96.80
2018-06-15T01:37:31.356Z,96.61
2018-06-15T01:38:31.344Z,96.51
2018-06-15T01:39:38.870Z,96.32
2018-06-15T01:40:39.799Z,96.70
2018-06-15T01:41:31.303Z,96.13
2018-06-15T01:42:31.286Z,96.99
2018-06-15T01:43:31.274Z,96.42
2018-06-15T01:44:31.254Z,96.32
2018-06-15T01:45:31.256Z,96.70
2018-06-15T01:46:31.229Z,96.61
2018-06-15T01:47:31.218Z,96.89
2018-06-15T01:48:31.199Z,96.70
2018-06-15T01:49:31.180Z,96.80
2018-06-15T01:50:31.186Z,96.70
2018-06-15T01:51:31.163Z,96.51
2018-06-15T01:52:31.146Z,96.99
2018-06-15T01:53:31.135Z,96.32
2018-06-15T01:54:31.142Z,96.89
2018-06-15T01:55:31.116Z,96.42
2018-06-15T01:56:31.089Z,96.51
2018-06-15T01:57:31.073Z,96.51
2018-06-15T01:58:31.058Z,96.42
2018-06-15T01:59:31.060Z,96.61
2018-06-15T02:00:31.031Z,96.22
2018-06-15T02:01:31.017Z,97.18
2018-06-15T02:02:31.006Z,96.99
2018-06-15T02:03:30.991Z,97.18
2018-06-15T02:04:30.976Z,96.32
2018-06-15T02:05:30.980Z,96.22
2018-06-15T02:06:30.945Z,96.70
2018-06-15T02:07:30.934Z,96.75
2018-06-15T02:08:30.919Z,96.80
2018-06-15T02:09:30.904Z,96.66
2018-06-15T02:10:30.891Z,96.37
2018-06-15T02:11:30.911Z,96.27
2018-06-15T02:12:30.865Z,96.56
2018-06-15T02:13:30.915Z,96.66
2018-06-15T02:14:30.830Z,96.37
2018-06-15T02:15:30.836Z,96.18
2018-06-15T02:16:30.826Z,96.37
2018-06-15T02:17:30.807Z,95.61
2018-06-15T02:18:30.779Z,95.51
2018-06-15T02:19:30.767Z,95.79
2018-06-15T02:20:30.755Z,96.03
2018-06-15T02:21:30.747Z,95.46
2018-06-15T02:22:30.741Z,95.46
2018-06-15T02:23:30.710Z,95.36
2018-06-15T02:24:30.711Z,95.75
2018-06-15T02:25:30.682Z,95.56
2018-06-15T02:26:30.669Z,95.46
2018-06-15T02:27:30.672Z,95.75
2018-06-15T02:28:30.655Z,95.27
2018-06-15T02:29:30.637Z,95.84
2018-06-15T02:30:30.629Z,95.56
2018-06-15T02:31:30.597Z,95.75
2018-06-15T02:32:30.600Z,95.84
2018-06-15T02:33:30.592Z,96.22
2018-06-15T02:34:30.568Z,95.94
2018-06-15T02:35:30.539Z,96.32
2018-06-15T02:36:30.531Z,96.03
2018-06-15T02:37:30.520Z,96.22
2018-06-15T02:38:30.502Z,96.03
2018-06-15T02:39:30.506Z,96.13
2018-06-15T02:40:30.472Z,95.84
2018-06-15T02:41:30.461Z,96.32
2018-06-15T02:42:30.445Z,96.22
2018-06-15T02:43:30.429Z,96.22
2018-06-15T02:44:30.435Z,96.51
2018-06-15T02:45:30.450Z,96.13
2018-06-15T02:46:30.393Z,96.42
2018-06-15T02:47:30.376Z,96.32
2018-06-15T02:48:30.364Z,96.08
2018-06-15T02:49:30.367Z,96.03
2018-06-15T02:50:30.336Z,96.03
2018-06-15T02:51:30.324Z,96.22
2018-06-15T02:52:30.307Z,96.51
2018-06-15T02:53:30.293Z,96.32
2018-06-15T02:54:30.279Z,96.13
2018-06-15T02:55:30.289Z,96.03
2018-06-15T02:56:30.246Z,96.22
2018-06-15T02:57:30.236Z,96.22
2018-06-15T02:58:30.224Z,96.47
2018-06-15T02:59:30.204Z,95.94
2018-06-15T03:00:30.214Z,95.46
2018-06-15T03:01:30.192Z,95.84
2018-06-15T03:02:30.163Z,95.89
2018-06-15T03:03:30.151Z,95.98
2018-06-15T03:04:30.139Z,96.08
2018-06-15T03:05:30.155Z,95.89
2018-06-15T03:06:30.126Z,95.70
2018-06-15T03:07:30.096Z,95.27
2018-06-15T03:08:30.087Z,95.60
2018-06-15T03:09:30.079Z,95.51
2018-06-15T03:10:30.057Z,95.60
2018-06-15T03:11:30.054Z,95.60
2018-06-15T03:12:30.025Z,95.51
2018-06-15T03:13:30.015Z,95.89
2018-06-15T03:14:29.997Z,96.08
2018-06-15T03:15:29.979Z,95.98
2018-06-15T03:16:29.995Z,95.70
2018-06-15T03:17:29.959Z,95.89
2018-06-15T03:18:29.958Z,95.79
2018-06-15T03:19:29.928Z,96.08
2018-06-15T03:20:29.930Z,96.08
2018-06-15T03:21:29.915Z,95.98
2018-06-15T03:22:29.901Z,95.51
2018-06-15T03:23:29.877Z,95.70
2018-06-15T03:24:29.874Z,95.51
2018-06-15T03:25:29.847Z,96.08
2018-06-15T03:26:29.845Z,95.89
2018-06-15T03:27:29.820Z,96.37
2018-06-15T03:28:29.804Z,96.47
2018-06-15T03:29:29.792Z,96.66
2018-06-15T03:30:29.804Z,97.23
2018-06-15T03:31:29.832Z,96.56
2018-06-15T03:32:43.863Z,96.75
2018-06-15T03:33:37.267Z,96.94
2018-06-15T03:34:37.930Z,96.56
2018-06-15T03:35:37.965Z,96.94
2018-06-15T03:36:29.688Z,96.75
2018-06-15T03:37:29.692Z,96.75
2018-06-15T03:38:38.017Z,96.56
2018-06-15T03:39:29.668Z,96.75
2018-06-15T03:40:29.633Z,96.27
2018-06-15T03:41:29.622Z,96.08
2018-06-15T03:42:29.654Z,95.60
2018-06-15T03:43:29.637Z,95.70
2018-06-15T03:44:29.593Z,95.89
2018-06-15T03:45:29.586Z,95.70
2018-06-15T03:46:29.568Z,95.79
2018-06-15T03:47:29.542Z,95.89
2018-06-15T03:48:29.523Z,95.79
2018-06-15T03:49:29.506Z,95.51
2018-06-15T03:50:29.511Z,95.31
2018-06-15T03:51:29.487Z,95.31
2018-06-15T03:52:29.485Z,95.31
2018-06-15T03:53:29.458Z,95.31
2018-06-15T03:54:29.459Z,95.12
2018-06-15T03:55:29.458Z,94.93
2018-06-15T03:56:29.427Z,94.64
2018-06-15T03:57:29.397Z,95.03
2018-06-15T03:58:29.387Z,94.64
2018-06-15T03:59:29.381Z,94.74
2018-06-15T04:00:29.361Z,94.74
2018-06-15T04:01:50.354Z,94.93
2018-06-15T04:02:29.349Z,95.22
2018-06-15T04:03:29.320Z,94.74
2018-06-15T04:04:29.307Z,94.93
2018-06-15T04:05:29.295Z,95.31
2018-06-15T04:06:29.302Z,95.51
2018-06-15T04:07:29.283Z,95.51
2018-06-15T04:08:29.252Z,95.41
2018-06-15T04:09:29.240Z,95.31
2018-06-15T04:10:29.226Z,95.51
2018-06-15T04:11:29.212Z,95.22
2018-06-15T04:12:29.216Z,95.41
2018-06-15T04:13:29.184Z,95.51
2018-06-15T04:14:29.171Z,95.89
2018-06-15T04:15:29.179Z,95.70
2018-06-15T04:16:29.162Z,96.08
2018-06-15T04:17:29.140Z,96.27
2018-06-15T04:18:29.133Z,95.98
2018-06-15T04:19:29.102Z,96.08
2018-06-15T04:20:29.092Z,96.47
2018-06-15T04:21:29.079Z,95.89
2018-06-15T04:22:29.084Z,96.08
2018-06-15T04:23:29.051Z,95.98
2018-06-15T04:24:29.033Z,95.89
2018-06-15T04:25:29.018Z,95.51
2018-06-15T04:26:29.006Z,95.31
2018-06-15T04:27:29.011Z,95.41
2018-06-15T04:28:28.999Z,95.41
2018-06-15T04:29:28.966Z,94.93
2018-06-15T04:30:28.955Z,94.74
2018-06-15T04:31:28.940Z,95.03
2018-06-15T04:32:28.929Z,94.55
2018-06-15T04:33:28.932Z,94.07
2018-06-15T04:34:28.917Z,93.98
2018-06-15T04:35:28.885Z,94.35
2018-06-15T04:36:28.879Z,93.98
2018-06-15T04:37:28.865Z,94.93
2018-06-15T04:38:28.865Z,94.84
2018-06-15T04:39:28.829Z,95.12
2018-06-15T04:40:28.818Z,95.46
2018-06-15T04:41:28.811Z,95.36
2018-06-15T04:42:28.795Z,95.51
2018-06-15T04:43:28.780Z,95.79
2018-06-15T04:44:28.784Z,95.89
2018-06-15T04:45:28.771Z,96.27
2018-06-15T04:46:28.735Z,96.51
2018-06-15T04:47:28.730Z,96.22
2018-06-15T04:48:28.715Z,95.94
2018-06-15T04:49:28.722Z,96.03
2018-06-15T04:50:28.684Z,96.13
2018-06-15T04:51:28.674Z,96.32
2018-06-15T04:52:28.658Z,96.22
2018-06-15T04:53:28.649Z,96.32
2018-06-15T04:54:28.639Z,96.89
2018-06-15T04:55:28.633Z,97.09
2018-06-15T04:56:28.607Z,96.89
2018-06-15T04:57:28.597Z,97.66
2018-06-15T04:58:28.582Z,97.85
2018-06-15T04:59:28.560Z,97.28
2018-06-15T05:00:28.566Z,97.95
2018-06-15T05:01:28.551Z,98.05
2018-06-15T05:02:28.524Z,97.95
2018-06-15T05:03:28.505Z,97.95
2018-06-15T05:04:28.494Z,98.14
2018-06-15T05:05:28.485Z,98.33
2018-06-15T05:06:28.486Z,98.33
2018-06-15T05:07:28.457Z,98.62
2018-06-15T05:08:28.461Z,98.14
2018-06-15T05:09:28.428Z,99.19
2018-06-15T05:10:28.412Z,98.14
2018-06-15T05:11:28.403Z,98.52
2018-06-15T05:12:28.385Z,98.72
2018-06-15T05:13:28.397Z,98.77
2018-06-15T05:14:28.384Z,98.67
2018-06-15T05:15:28.355Z,99.15
2018-06-15T05:16:28.337Z,99.99
2018-06-15T05:17:28.325Z,99.99
2018-06-15T05:18:28.373Z,99.99
2018-06-15T05:19:28.304Z,99.99
2018-06-15T05:20:28.288Z,99.99
2018-06-15T05:21:28.275Z,99.99
2018-06-15T05:22:28.286Z,99.99
2018-06-15T05:23:28.263Z,99.99
2018-06-15T05:24:28.251Z,99.99
2018-06-15T05:25:28.222Z,99.99
2018-06-15T05:26:28.215Z,99.99
2018-06-15T05:27:28.196Z,99.99
2018-06-15T05:28:28.187Z,99.99
2018-06-15T05:29:28.189Z,99.99
2018-06-15T05:30:28.158Z,99.99
2018-06-15T05:31:36.575Z,99.99
2018-06-15T05:32:28.131Z,99.99
2018-06-15T05:33:28.119Z,99.99
2018-06-15T05:34:28.107Z,99.99
2018-06-15T05:35:28.106Z,99.99
2018-06-15T05:36:28.092Z,99.99
2018-06-15T05:37:28.069Z,99.99
2018-06-15T05:38:28.052Z,99.99
2018-06-15T05:39:28.052Z,99.99
2018-06-15T05:40:28.036Z,99.99
2018-06-15T05:41:28.024Z,99.99
2018-06-15T05:42:28.012Z,99.99
2018-06-15T05:43:27.985Z,99.99
2018-06-15T05:44:27.978Z,99.99
2018-06-15T05:45:27.979Z,99.99
2018-06-15T05:46:27.950Z,99.99
2018-06-15T05:47:27.937Z,99.99
2018-06-15T05:48:27.921Z,99.99
2018-06-15T05:49:27.909Z,99.99
2018-06-15T05:50:27.912Z,99.99
2018-06-15T05:51:27.895Z,99.99
2018-06-15T05:52:27.876Z,99.99
2018-06-15T05:53:27.869Z,99.99
2018-06-15T05:54:27.848Z,99.99
2018-06-15T05:55:27.853Z,99.99
2018-06-15T05:56:27.841Z,99.99
2018-06-15T05:57:27.823Z,99.99
2018-06-15T05:58:27.796Z,99.99
2018-06-15T05:59:27.780Z,99.99
2018-06-15T06:00:27.773Z,99.99
2018-06-15T06:01:27.762Z,99.99
2018-06-15T06:02:27.757Z,99.99
2018-06-15T06:03:27.751Z,99.99
2018-06-15T06:04:27.721Z,99.99
2018-06-15T06:05:27.713Z,99.99
2018-06-15T06:06:27.696Z,99.99
2018-06-15T06:07:27.682Z,99.99
2018-06-15T06:08:27.686Z,99.99
2018-06-15T06:09:27.653Z,99.99
2018-06-15T06:10:27.645Z,99.99
2018-06-15T06:11:27.631Z,99.99
2018-06-15T06:12:27.615Z,99.99
2018-06-15T06:13:27.623Z,99.99
2018-06-15T06:14:27.597Z,99.99
2018-06-15T06:15:27.577Z,99.99
2018-06-15T06:16:27.574Z,99.99
2018-06-15T06:17:27.562Z,99.99
2018-06-15T06:18:27.553Z,99.99
2018-06-15T06:19:27.530Z,99.99
2018-06-15T06:20:27.515Z,99.99
2018-06-15T06:21:27.511Z,99.99
2018-06-15T06:22:27.490Z,99.99
2018-06-15T06:23:27.496Z,99.99
2018-06-15T06:24:27.486Z,99.99
2018-06-15T06:25:27.455Z,99.99
2018-06-15T06:26:27.445Z,99.99
2018-06-15T06:27:27.430Z,99.99
2018-06-15T06:28:27.423Z,99.99
2018-06-15T06:29:27.406Z,99.99
2018-06-15T06:30:27.407Z,99.99
2018-06-15T06:31:27.382Z,99.99
2018-06-15T06:32:27.386Z,99.99
2018-06-15T06:33:27.354Z,99.99
2018-06-15T06:34:27.360Z,99.99
2018-06-15T06:35:27.334Z,99.99
2018-06-15T06:36:27.325Z,99.99
2018-06-15T06:37:27.331Z,99.99
2018-06-15T06:38:27.297Z,99.99
2018-06-15T06:39:27.286Z,99.99
2018-06-15T06:40:27.291Z,99.99
2018-06-15T06:41:27.277Z,99.99
2018-06-15T06:42:27.250Z,99.99
2018-06-15T06:43:27.235Z,99.99
2018-06-15T06:44:27.227Z,99.99
2018-06-15T06:45:27.213Z,99.99
2018-06-15T06:46:27.231Z,99.99
2018-06-15T06:47:27.198Z,99.99
2018-06-15T06:48:27.180Z,99.99
2018-06-15T06:49:27.162Z,99.99
2018-06-15T06:50:27.210Z,99.99
2018-06-15T06:51:27.142Z,99.99
2018-06-15T06:52:27.146Z,99.99
2018-06-15T06:53:27.120Z,99.99
2018-06-15T06:54:27.109Z,99.99
2018-06-15T06:55:27.096Z,99.99
2018-06-15T06:56:27.085Z,99.99
2018-06-15T06:57:27.104Z,99.99
2018-06-15T06:58:27.070Z,99.99
2018-06-15T06:59:27.054Z,99.99
2018-06-15T07:00:27.042Z,99.99
2018-06-15T07:01:27.034Z,99.99
2018-06-15T07:02:27.020Z,99.99
2018-06-15T07:03:27.024Z,99.99
2018-06-15T07:04:27.009Z,99.99
2018-06-15T07:05:26.997Z,99.99
2018-06-15T07:06:26.981Z,99.99
2018-06-15T07:07:26.965Z,99.99
2018-06-15T07:08:26.967Z,99.99
2018-06-15T07:09:26.942Z,99.99
2018-06-15T07:10:26.928Z,99.99
2018-06-15T07:11:26.920Z,99.99
2018-06-15T07:12:26.908Z,99.99
2018-06-15T07:13:26.901Z,99.99
2018-06-15T07:14:26.900Z,99.99
2018-06-15T07:15:26.874Z,99.99
2018-06-15T07:16:26.867Z,99.99
2018-06-15T07:17:26.852Z,99.99
2018-06-15T07:18:26.845Z,99.99
2018-06-15T07:19:26.848Z,99.99
2018-06-15T07:20:26.821Z,99.99
2018-06-15T07:21:26.815Z,99.99
2018-06-15T07:22:26.810Z,99.99
2018-06-15T07:23:26.791Z,99.99
2018-06-15T07:24:26.777Z,99.99
2018-06-15T07:25:26.782Z,99.99
2018-06-15T07:26:26.757Z,99.99
2018-06-15T07:27:26.769Z,99.99
2018-06-15T07:28:26.739Z,99.99
2018-06-15T07:29:26.743Z,99.99
2018-06-15T07:30:26.737Z,99.99
2018-06-15T07:31:26.711Z,99.99
2018-06-15T07:32:26.693Z,99.99
2018-06-15T07:33:26.699Z,99.99
2018-06-15T07:34:26.678Z,99.99
2018-06-15T07:35:26.670Z,99.99
2018-06-15T07:36:26.679Z,99.99
2018-06-15T07:37:26.653Z,99.99
2018-06-15T07:38:26.638Z,99.99
2018-06-15T07:39:26.628Z,99.99
2018-06-15T07:40:26.610Z,99.99
2018-06-15T07:41:26.622Z,99.99
2018-06-15T07:42:26.597Z,99.99
2018-06-15T07:43:26.584Z,99.99
2018-06-15T07:44:26.573Z,99.99
2018-06-15T07:45:26.562Z,99.99
2018-06-15T07:46:26.569Z,99.99
2018-06-15T07:47:26.540Z,99.99
2018-06-15T07:48:26.534Z,99.99
2018-06-15T07:49:26.524Z,99.99
2018-06-15T07:50:26.507Z,99.99
2018-06-15T07:51:26.520Z,99.99
2018-06-15T07:52:26.515Z,99.99
2018-06-15T07:53:26.478Z,99.99
2018-06-15T07:54:26.465Z,99.99
2018-06-15T07:55:26.462Z,99.99
2018-06-15T07:56:26.445Z,99.99
2018-06-15T07:57:26.451Z,99.99
2018-06-15T07:58:26.421Z,99.99
2018-06-15T07:59:26.430Z,99.99
2018-06-15T08:00:26.403Z,99.99
2018-06-15T08:01:26.412Z,99.99
2018-06-15T08:02:26.380Z,99.99
2018-06-15T08:03:26.391Z,99.99
2018-06-15T08:04:26.359Z,99.99
2018-06-15T08:05:26.357Z,99.99
2018-06-15T08:06:26.342Z,99.99
2018-06-15T08:07:26.331Z,99.99
2018-06-15T08:08:26.323Z,99.99
2018-06-15T08:09:26.329Z,99.99
2018-06-15T08:10:26.295Z,99.99
2018-06-15T08:11:26.291Z,99.99
2018-06-15T08:12:47.297Z,99.99
2018-06-15T08:13:26.273Z,99.99
2018-06-15T08:14:26.275Z,99.99
2018-06-15T08:15:26.265Z,99.99
2018-06-15T08:16:26.243Z,99.99
2018-06-15T08:17:26.229Z,99.99
2018-06-15T08:18:26.237Z,99.99
2018-06-15T08:19:26.207Z,99.99
2018-06-15T08:20:26.197Z,99.99
2018-06-15T08:21:26.196Z,99.99
2018-06-15T08:22:26.179Z,99.99
2018-06-15T08:23:26.189Z,99.99
2018-06-15T08:24:26.156Z,99.99
2018-06-15T08:25:26.150Z,99.99
2018-06-15T08:26:26.138Z,99.99
2018-06-15T08:27:26.125Z,99.99
2018-06-15T08:28:26.114Z,99.99
2018-06-15T08:29:26.128Z,99.99
2018-06-15T08:30:26.097Z,99.99
2018-06-15T08:31:26.086Z,99.99
2018-06-15T08:32:26.074Z,99.99
2018-06-15T08:33:26.063Z,99.99
2018-06-15T08:34:26.071Z,99.99
2018-06-15T08:35:26.045Z,99.99
2018-06-15T08:36:26.037Z,99.99
2018-06-15T08:37:26.032Z,99.99
2018-06-15T08:38:26.013Z,99.99
2018-06-15T08:39:26.007Z,99.50
2018-06-15T08:40:26.013Z,96.12
2018-06-15T08:41:25.988Z,95.54
2018-06-15T08:42:26.016Z,94.92
2018-06-15T08:43:25.961Z,92.50
2018-06-15T08:44:25.957Z,93.43
2018-06-15T08:45:25.966Z,94.00
2018-06-15T08:46:25.935Z,93.91
2018-06-15T08:47:25.933Z,94.10
2018-06-15T08:48:25.916Z,90.87
2018-06-15T08:49:25.921Z,89.27
2018-06-15T08:50:25.894Z,87.96
2018-06-15T08:51:25.910Z,87.58
2018-06-15T08:52:25.876Z,85.98
2018-06-15T08:53:25.863Z,85.26
2018-06-15T08:54:25.855Z,90.52
2018-06-15T08:55:25.850Z,89.89
2018-06-15T08:56:25.853Z,89.89
2018-06-15T08:57:25.832Z,90.13
2018-06-15T08:58:25.822Z,87.23
2018-06-15T08:59:25.806Z,86.75
2018-06-15T09:00:25.804Z,90.67
2018-06-15T09:01:25.819Z,87.87
2018-06-15T09:02:25.787Z,87.67
2018-06-15T09:03:25.777Z,89.99
2018-06-15T09:04:25.767Z,89.95
2018-06-15T09:05:25.757Z,91.74
2018-06-15T09:06:25.748Z,92.32
2018-06-15T09:07:25.753Z,91.12
2018-06-15T09:08:25.725Z,92.76
2018-06-15T09:09:25.722Z,94.39
2018-06-15T09:10:25.711Z,96.22
2018-06-15T09:11:25.718Z,96.03
2018-06-15T09:12:25.690Z,94.29
2018-06-15T09:13:25.681Z,95.55
2018-06-15T09:14:25.668Z,97.09
2018-06-15T09:15:25.659Z,94.92
2018-06-15T09:16:25.656Z,95.45
2018-06-15T09:17:46.674Z,95.45
2018-06-15T09:18:25.633Z,91.02
2018-06-15T09:19:25.620Z,89.81
2018-06-15T09:20:25.615Z,92.22
2018-06-15T09:21:25.601Z,90.97
2018-06-15T09:22:25.593Z,93.76
2018-06-15T09:23:25.592Z,94.10
2018-06-15T09:24:25.570Z,93.86
2018-06-15T09:25:25.559Z,93.81
2018-06-15T09:26:25.563Z,95.50
2018-06-15T09:27:25.569Z,95.31
2018-06-15T09:28:25.528Z,92.46
2018-06-15T09:29:25.520Z,89.85
2018-06-15T09:30:25.512Z,90.67
2018-06-15T09:31:25.494Z,91.60
2018-06-15T09:32:25.487Z,92.12
2018-06-15T09:33:25.500Z,92.21
2018-06-15T09:34:25.470Z,87.61
2018-06-15T09:35:25.463Z,75.89
2018-06-15T09:36:25.453Z,74.93
2018-06-15T09:37:25.440Z,69.60
2018-06-15T09:38:25.429Z,69.57
2018-06-15T09:39:25.441Z,67.37
2018-06-15T09:40:25.419Z,68.15
2018-06-15T09:41:25.430Z,65.20
2018-06-15T09:42:25.405Z,63.45
2018-06-15T09:43:25.394Z,60.28
2018-06-15T09:44:25.413Z,58.98
2018-06-15T09:45:25.383Z,58.07
2018-06-15T09:46:25.395Z,59.44
2018-06-15T09:47:25.370Z,63.13
2018-06-15T09:48:25.364Z,59.86
2018-06-15T09:49:25.364Z,57.95
2018-06-15T09:50:25.682Z,57.36
2018-06-15T09:51:25.357Z,58.01
2018-06-15T09:52:25.347Z,59.70
2018-06-15T09:53:25.344Z,62.26
2018-06-15T09:55:57.575Z,61.75
2018-06-15T09:56:57.357Z,64.27
2018-06-15T09:57:57.360Z,66.24
2018-06-15T09:58:57.355Z,68.82
2018-06-15T09:59:57.368Z,71.44
2018-06-15T10:00:57.349Z,69.69
2018-06-15T10:01:57.363Z,67.34
2018-06-15T10:02:57.340Z,66.20
2018-06-15T10:03:57.336Z,68.24
2018-06-15T10:04:57.335Z,72.17
2018-06-15T10:05:57.350Z,71.98
2018-06-15T10:06:57.330Z,78.81
2018-06-15T10:07:57.322Z,77.84
2018-06-15T10:08:57.312Z,73.66
2018-06-15T10:09:57.312Z,72.60
2018-06-15T10:10:57.308Z,70.11
2018-06-15T10:11:57.320Z,71.88
2018-06-15T10:12:57.298Z,73.30
2018-06-15T10:13:57.297Z,70.79
2018-06-15T10:14:57.286Z,67.05
2018-06-15T10:15:57.285Z,65.75
2018-06-15T10:16:57.297Z,64.59
2018-06-15T10:17:57.292Z,64.43
2018-06-15T10:18:57.272Z,64.72
2018-06-15T10:19:57.268Z,67.63
2018-06-15T10:20:57.263Z,72.64
2018-06-15T10:21:57.277Z,75.20
2018-06-15T10:22:57.258Z,75.16
2018-06-15T10:23:57.250Z,74.58
2018-06-15T10:24:57.244Z,74.48
2018-06-15T10:25:57.238Z,75.00
2018-06-15T10:26:57.228Z,75.97
2018-06-15T10:27:57.256Z,72.02
2018-06-15T10:28:57.219Z,67.24
2018-06-15T10:29:57.222Z,67.89
2018-06-15T10:30:57.214Z,63.01
2018-06-15T10:31:57.210Z,64.43
2018-06-15T10:32:57.221Z,64.53
2018-06-15T10:33:57.218Z,65.20
2018-06-15T10:34:57.203Z,64.46
2018-06-15T10:35:57.191Z,65.92
2018-06-15T10:36:57.190Z,68.21
2018-06-15T10:37:57.183Z,65.92
2018-06-15T10:38:57.180Z,66.17
2018-06-15T10:39:57.193Z,64.53
2018-06-15T10:40:57.169Z,62.94
2018-06-15T10:41:57.167Z,59.38
2018-06-15T10:42:57.161Z,59.70
2018-06-15T10:43:57.177Z,58.80
2018-06-15T10:44:57.173Z,59.12
2018-06-15T10:45:57.174Z,59.64
2018-06-15T10:46:57.154Z,61.81
2018-06-15T10:47:57.156Z,60.09
2018-06-15T10:48:57.148Z,58.31
2018-06-15T10:49:57.161Z,57.72
2018-06-15T10:50:57.139Z,56.85
2018-06-15T10:51:57.137Z,59.26
2018-06-15T10:52:57.136Z,62.75
2018-06-15T10:53:57.136Z,65.72
2018-06-15T10:54:57.132Z,66.08
2018-06-15T10:55:57.159Z,62.65
2018-06-15T10:56:57.137Z,60.68
2018-06-15T10:57:57.123Z,59.95
2018-06-15T10:58:57.123Z,56.90
2018-06-15T10:59:57.114Z,56.77
2018-06-15T11:00:57.133Z,57.53
2018-06-15T11:01:57.115Z,58.61
2018-06-15T11:02:57.114Z,61.78
2018-06-15T11:03:57.112Z,61.75
2018-06-15T11:04:57.125Z,60.74
2018-06-15T11:05:57.125Z,56.62
2018-06-15T11:06:57.103Z,56.79
2018-06-15T11:07:57.100Z,60.41
2018-06-15T11:08:57.152Z,57.29
2018-06-15T11:09:57.111Z,54.99
2018-06-15T11:10:57.097Z,53.28
2018-06-15T11:11:57.114Z,53.06
2018-06-15T11:12:57.097Z,53.47
2018-06-15T11:13:57.098Z,56.07
2018-06-15T11:14:57.092Z,56.59
2018-06-15T11:15:57.112Z,55.05
2018-06-15T11:16:57.105Z,56.07
2018-06-15T11:17:57.089Z,56.20
2018-06-15T11:18:57.085Z,55.25
2018-06-15T11:19:57.117Z,55.03
2018-06-15T11:20:57.089Z,56.21
2018-06-15T11:21:57.086Z,58.09
2018-06-15T11:22:57.097Z,61.26
2018-06-15T11:23:57.081Z,61.85
2018-06-15T11:24:57.077Z,60.52
2018-06-15T11:25:57.079Z,62.46
2018-06-15T11:26:57.078Z,62.46
2018-06-15T11:27:57.089Z,62.88
2018-06-15T11:28:57.073Z,61.10
2018-06-15T11:29:57.072Z,58.44
2018-06-15T11:30:57.116Z,56.56
2018-06-15T11:31:57.070Z,57.62
2018-06-15T11:32:57.082Z,57.07
2018-06-15T11:33:57.058Z,57.39
2018-06-15T11:34:57.061Z,55.76
2018-06-15T11:35:57.060Z,55.23
2018-06-15T11:36:57.057Z,53.26
2018-06-15T11:37:57.073Z,54.46
2018-06-15T11:38:57.057Z,51.99
2018-06-15T11:39:57.053Z,52.02
2018-06-15T11:40:57.104Z,52.69
2018-06-15T11:41:57.052Z,54.25
2018-06-15T11:42:57.051Z,54.44
2018-06-15T11:43:57.070Z,56.22
2018-06-15T11:44:57.049Z,53.06
2018-06-15T11:45:57.051Z,53.99
2018-06-15T11:46:57.047Z,55.08
2018-06-15T11:47:57.042Z,54.52
2018-06-15T11:48:57.066Z,52.12
2018-06-15T11:49:57.064Z,50.46
2018-06-15T11:50:57.054Z,51.04
2018-06-15T11:51:57.044Z,50.97
2018-06-15T11:52:57.058Z,48.97
2018-06-15T11:53:57.042Z,49.32
2018-06-15T11:54:57.088Z,49.99
2018-06-15T11:55:57.041Z,49.76
2018-06-15T11:56:57.047Z,51.77
2018-06-15T11:57:57.048Z,53.45
2018-06-15T11:58:57.038Z,52.50
2018-06-15T11:59:57.061Z,53.08
2018-06-15T12:00:57.039Z,53.91
2018-06-15T12:01:57.036Z,55.02
2018-06-15T12:02:57.051Z,56.05
2018-06-15T12:03:57.039Z,57.42
2018-06-15T12:04:57.052Z,56.76
2018-06-15T12:05:57.051Z,55.27
2018-06-15T12:06:57.035Z,54.32
2018-06-15T12:07:57.090Z,51.92
2018-06-15T12:08:57.035Z,51.04
2018-06-15T12:09:57.031Z,52.21
2018-06-15T12:10:57.051Z,51.36
2018-06-15T12:11:57.025Z,51.19
2018-06-15T12:12:57.028Z,50.87
2018-06-15T12:13:57.025Z,50.78
2018-06-15T12:14:57.026Z,52.11
2018-06-15T12:15:57.030Z,52.96
2018-06-15T12:16:57.058Z,51.84
2018-06-15T12:17:57.020Z,52.62
2018-06-15T12:18:57.026Z,52.40
2018-06-15T12:19:57.025Z,52.01
2018-06-15T12:20:57.026Z,52.21
2018-06-15T12:21:57.039Z,53.01
2018-06-15T12:22:57.017Z,52.57
2018-06-15T12:23:57.022Z,55.53
2018-06-15T12:24:57.014Z,56.25
2018-06-15T12:25:57.019Z,57.19
2018-06-15T12:26:57.035Z,57.75
2018-06-15T12:27:57.014Z,59.72
2018-06-15T12:28:57.014Z,61.05
2018-06-15T12:29:57.013Z,63.66
2018-06-15T12:30:57.010Z,63.92
2018-06-15T12:31:57.010Z,64.43
2018-06-15T12:32:57.022Z,62.59
2018-06-15T12:33:57.002Z,64.66
2018-06-15T12:34:57.000Z,63.56
2018-06-15T12:35:56.992Z,61.85
2018-06-15T12:36:56.991Z,62.98
2018-06-15T12:37:56.982Z,57.96
2018-06-15T12:38:57.001Z,55.65
2018-06-15T12:39:56.983Z,56.46
2018-06-15T12:40:56.976Z,57.21
2018-06-15T12:41:56.973Z,58.41
2018-06-15T12:42:56.981Z,55.53
2018-06-15T12:43:56.968Z,55.04
2018-06-15T12:44:56.962Z,55.00
2018-06-15T12:45:56.982Z,53.96
2018-06-15T12:46:56.956Z,53.59
2018-06-15T12:47:56.970Z,54.11
2018-06-15T12:48:56.953Z,51.90
2018-06-15T12:49:56.951Z,52.14
2018-06-15T12:50:56.941Z,52.57
2018-06-15T12:51:56.943Z,53.32
2018-06-15T12:52:56.954Z,54.97
2018-06-15T12:53:56.957Z,54.97